createdAt,value
2024-01-15T00:03:05.755Z,8.36
2024-01-15T00:08:09.324Z,8.46
2024-01-15T00:13:12.895Z,9.36
2024-01-15T00:18:17.967Z,8.92
2024-01-15T00:23:21.774Z,8.97
2024-01-15T00:28:25.315Z,8.86
2024-01-15T00:33:30.385Z,8.16
2024-01-15T00:38:34.307Z,9.04
2024-01-15T00:43:37.856Z,8.18
2024-01-15T00:48:43.127Z,8.45
2024-01-15T00:53:46.837Z,7.86
2024-01-15T00:58:50.394Z,8.21
2024-01-15T01:03:55.610Z,7.97
2024-01-15T01:08:59.364Z,8.19
2024-01-15T01:14:03.089Z,8.00
2024-01-15T01:19:08.825Z,8.48
2024-01-15T01:24:12.820Z,8.75
2024-01-15T01:29:16.555Z,8.15
2024-01-15T01:34:21.585Z,8.67
2024-01-15T01:39:25.220Z,8.48
2024-01-15T01:44:28.859Z,8.24
2024-01-15T01:49:35.189Z,8.43
2024-01-15T01:54:39.751Z,8.24
2024-01-15T01:59:43.490Z,8.77
2024-01-15T02:04:49.609Z,9.06
2024-01-15T02:09:53.605Z,8.88
2024-01-15T02:14:57.167Z,8.95
2024-01-15T02:20:02.094Z,8.87
2024-01-15T02:25:08.126Z,8.82
2024-01-15T02:30:12.879Z,8.45
2024-01-15T02:35:17.145Z,9.10
2024-01-15T02:40:22.526Z,9.09
2024-01-15T02:45:26.359Z,8.76
2024-01-15T02:50:30.170Z,9.13
2024-01-15T02:55:35.270Z,9.25
2024-01-15T03:00:38.931Z,8.62
2024-01-15T03:05:42.631Z,8.49
2024-01-15T03:10:47.700Z,9.07
2024-01-15T03:15:51.294Z,9.26
2024-01-15T03:20:54.844Z,9.82
2024-01-15T03:25:59.716Z,8.96
2024-01-15T03:31:03.329Z,8.46
2024-01-15T03:36:07.640Z,9.47
2024-01-15T03:41:12.768Z,9.78
2024-01-15T03:46:16.377Z,9.05
2024-01-15T03:51:20.240Z,9.00
2024-01-15T03:56:25.229Z,9.04
2024-01-15T04:01:28.816Z,8.55
2024-01-15T04:06:32.564Z,9.38
2024-01-15T04:11:37.767Z,9.08
2024-01-15T04:16:41.367Z,9.60
2024-01-15T04:21:44.925Z,8.79
2024-01-15T04:26:49.951Z,8.54
2024-01-15T04:31:55.023Z,8.89
2024-01-15T04:36:58.671Z,8.30
2024-01-15T04:42:03.926Z,8.62
2024-01-15T04:47:07.517Z,9.15
2024-01-15T04:52:11.554Z,8.96
2024-01-15T04:57:16.666Z,8.35
2024-01-15T05:02:20.374Z,8.76
2024-01-15T05:07:23.993Z,8.63
2024-01-15T05:12:29.484Z,8.63
2024-01-15T05:17:33.136Z,8.25
2024-01-15T05:22:37.916Z,8.58
2024-01-15T05:27:42.877Z,8.57
2024-01-15T05:32:47.832Z,8.68
2024-01-15T05:37:51.511Z,8.57
2024-01-15T05:42:56.542Z,8.64
2024-01-15T05:48:00.397Z,9.53
2024-01-15T05:53:04.000Z,8.87
2024-01-15T05:58:09.071Z,9.55
2024-01-15T06:03:12.797Z,8.76
2024-01-15T06:08:16.795Z,9.01
2024-01-15T06:13:21.780Z,9.38
2024-01-15T06:18:25.592Z,8.15
2024-01-15T06:23:29.343Z,9.03
2024-01-15T06:28:34.353Z,8.51
2024-01-15T06:33:38.021Z,8.61
2024-01-15T06:38:41.890Z,8.56
2024-01-15T06:43:46.904Z,8.61
2024-01-15T06:48:50.916Z,9.20
2024-01-15T06:53:54.709Z,8.86
2024-01-15T06:58:59.826Z,9.23
2024-01-15T07:04:04.442Z,8.65
2024-01-15T07:09:09.408Z,9.34
2024-01-15T07:14:15.142Z,9.24
2024-01-15T07:19:18.699Z,8.97
2024-01-15T07:24:22.303Z,9.36
2024-01-15T07:29:27.296Z,9.61
2024-01-15T07:34:31.158Z,9.92
2024-01-15T07:39:35.812Z,9.28
2024-01-15T07:44:40.948Z,9.44
2024-01-15T07:49:44.841Z,9.19
2024-01-15T07:54:48.601Z,9.16
2024-01-15T07:59:53.622Z,9.07
2024-01-15T08:04:57.231Z,9.26
2024-01-15T08:10:01.022Z,9.29
2024-01-15T08:15:07.847Z,9.45
2024-01-15T08:20:11.998Z,9.58
2024-01-15T08:25:15.857Z,9.57
2024-01-15T08:30:21.648Z,8.97
2024-01-15T08:35:26.533Z,9.26
2024-01-15T08:40:31.278Z,9.94
2024-01-15T08:45:37.171Z,9.69
2024-01-15T08:50:41.281Z,10.00
2024-01-15T08:55:45.787Z,9.93
2024-01-15T09:00:52.102Z,9.78
2024-01-15T09:05:55.920Z,9.67
2024-01-15T09:10:59.897Z,9.85
2024-01-15T09:16:06.496Z,10.20
2024-01-15T09:21:10.956Z,9.88
2024-01-15T09:26:15.574Z,9.14
2024-01-15T09:31:21.273Z,9.94
2024-01-15T09:36:25.595Z,10.05
2024-01-15T09:41:29.479Z,9.88
2024-01-15T09:46:36.855Z,10.10
2024-01-15T09:51:41.366Z,11.05
2024-01-15T09:56:47.664Z,10.53
2024-01-15T10:01:52.940Z,10.81
2024-01-15T10:06:58.625Z,10.42
2024-01-15T10:12:02.434Z,9.16
2024-01-15T10:17:16.507Z,9.27
2024-01-15T10:22:20.472Z,9.50
2024-01-15T10:27:24.323Z,9.43
2024-01-15T10:32:29.733Z,9.94
2024-01-15T10:37:35.901Z,10.47
2024-01-15T10:42:40.180Z,10.28
2024-01-15T10:47:45.497Z,10.08
2024-01-15T10:52:49.154Z,10.42
2024-01-15T10:57:52.785Z,10.74
2024-01-15T11:02:58.086Z,9.78
2024-01-15T11:08:02.013Z,9.68
2024-01-15T11:13:06.650Z,10.06
2024-01-15T11:18:12.878Z,10.19
2024-01-15T11:23:49.691Z,9.82
2024-01-15T11:28:55.051Z,11.58
2024-01-15T11:34:01.278Z,10.99
2024-01-15T11:39:44.543Z,10.19
2024-01-15T11:44:48.828Z,10.06
2024-01-15T11:50:04.291Z,10.18
2024-01-15T11:55:18.956Z,9.82
2024-01-15T12:00:23.792Z,10.48
2024-01-15T12:05:29.327Z,11.36
2024-01-15T12:10:32.984Z,10.16
2024-01-15T12:15:37.746Z,11.03
2024-01-15T12:20:43.686Z,10.67
2024-01-15T12:25:48.161Z,10.34
2024-01-15T12:30:52.325Z,10.56
2024-01-15T12:35:57.415Z,10.37
2024-01-15T12:41:02.544Z,9.94
2024-01-15T12:46:06.255Z,10.29
2024-01-15T12:51:11.746Z,10.47
2024-01-15T12:56:15.444Z,10.96
2024-01-15T13:01:19.423Z,10.36
2024-01-15T13:06:25.017Z,10.50
2024-01-15T13:11:29.321Z,10.80
2024-01-15T13:16:33.577Z,10.11
2024-01-15T13:21:38.808Z,10.44
2024-01-15T13:26:42.610Z,10.07
2024-01-15T13:31:47.593Z,10.25
2024-01-15T13:36:54.672Z,10.18
2024-01-15T13:41:58.273Z,10.12
2024-01-15T13:47:01.922Z,10.72
2024-01-15T13:52:07.416Z,9.19
2024-01-15T13:57:11.064Z,9.93
2024-01-15T14:02:17.691Z,9.75
2024-01-15T14:07:26.416Z,10.08
2024-01-15T14:12:29.974Z,9.89
2024-01-15T14:17:33.911Z,10.00
2024-01-15T14:22:39.271Z,9.17
2024-01-15T14:27:42.864Z,9.82
2024-01-15T14:32:46.608Z,9.83
2024-01-15T14:37:51.552Z,9.59
2024-01-15T14:42:56.195Z,9.89
2024-01-15T14:47:59.985Z,9.72
2024-01-15T14:53:05.354Z,9.78
2024-01-15T14:58:08.969Z,8.99
2024-01-15T15:03:14.991Z,9.51
2024-01-15T15:08:20.040Z,9.73
2024-01-15T15:13:33.916Z,9.89
2024-01-15T15:18:47.609Z,9.41
2024-01-15T15:23:52.865Z,9.29
2024-01-15T15:28:56.419Z,9.44
2024-01-15T15:34:00.185Z,8.97
2024-01-15T15:39:05.397Z,9.31
2024-01-15T15:44:09.868Z,8.82
2024-01-15T15:49:13.752Z,9.13
2024-01-15T15:54:18.926Z,8.75
2024-01-15T15:59:23.174Z,9.21
2024-01-15T16:04:26.956Z,8.83
2024-01-15T16:09:32.147Z,8.22
2024-01-15T16:14:35.847Z,8.77
2024-01-15T16:23:26.510Z,7.87
2024-01-15T16:25:07.215Z,8.33
2024-01-15T16:30:20.873Z,8.25
2024-01-15T16:35:32.942Z,8.09
2024-01-15T16:40:40.124Z,8.71
2024-01-15T16:45:43.926Z,9.02
2024-01-15T16:50:47.627Z,8.47
2024-01-15T16:55:52.667Z,8.68
2024-01-15T17:00:56.770Z,7.18
2024-01-15T17:06:00.436Z,8.91
2024-01-15T17:11:05.659Z,9.31
2024-01-15T17:16:10.670Z,9.04
2024-01-15T17:21:14.551Z,8.52
2024-01-15T17:26:20.296Z,8.62
2024-01-15T17:31:24.531Z,8.51
2024-01-15T17:36:28.053Z,9.22
2024-01-15T17:41:34.110Z,9.40
2024-01-15T17:46:37.916Z,9.24
2024-01-15T17:51:41.947Z,8.98
2024-01-15T17:56:47.053Z,8.94
2024-01-15T18:01:52.791Z,8.50
2024-01-15T18:06:56.991Z,8.73
2024-01-15T18:12:02.658Z,9.11
2024-01-15T18:17:06.550Z,8.92
2024-01-15T18:22:10.536Z,8.34
2024-01-15T18:27:15.691Z,8.75
2024-01-15T18:32:19.551Z,8.66
2024-01-15T18:37:23.150Z,9.01
2024-01-15T18:42:28.439Z,8.48
2024-01-15T18:47:32.220Z,7.80
2024-01-15T18:52:35.885Z,7.76
2024-01-15T18:57:40.930Z,8.50
2024-01-15T19:02:44.781Z,8.10
2024-01-15T19:07:48.420Z,8.12
2024-01-15T19:12:53.445Z,8.78
2024-01-15T19:17:58.402Z,9.09
2024-01-15T19:23:02.890Z,9.22
2024-01-15T19:28:08.689Z,8.45
2024-01-15T19:33:12.651Z,8.91
2024-01-15T19:38:16.549Z,8.52
2024-01-15T19:43:21.536Z,9.15
2024-01-15T19:48:25.216Z,8.63
2024-01-15T19:53:29.020Z,8.79
2024-01-15T19:58:37.001Z,8.71
2024-01-15T20:03:42.275Z,8.69
2024-01-15T20:08:47.050Z,8.16
2024-01-15T20:13:51.906Z,9.00
2024-01-15T20:18:56.340Z,8.87
2024-01-15T20:24:03.977Z,9.06
2024-01-15T20:29:11.084Z,8.16
2024-01-15T20:34:15.187Z,8.95
2024-01-15T20:39:18.877Z,9.07
2024-01-15T20:44:25.669Z,8.13
2024-01-15T20:49:29.386Z,8.21
2024-01-15T20:54:33.028Z,8.19
2024-01-15T20:59:38.061Z,8.39
2024-01-15T21:04:41.986Z,8.61
2024-01-15T21:09:45.639Z,8.09
2024-01-15T21:14:50.717Z,8.73
2024-01-15T21:19:56.835Z,8.74
2024-01-15T21:25:00.657Z,8.31
2024-01-15T21:30:06.688Z,8.64
2024-01-15T21:35:11.546Z,9.10
2024-01-15T21:40:15.638Z,8.49
2024-01-15T21:45:20.700Z,8.92
2024-01-15T21:50:24.968Z,8.05
2024-01-15T21:55:28.551Z,8.09
2024-01-15T22:00:33.526Z,8.67
2024-01-15T22:05:37.324Z,8.57
2024-01-15T22:10:41.038Z,8.58
2024-01-15T22:15:45.999Z,7.87
2024-01-15T22:20:49.838Z,8.28
2024-01-15T22:25:54.585Z,8.55
2024-01-15T22:30:59.594Z,8.14
2024-01-15T22:36:03.261Z,8.53
2024-01-15T22:41:06.914Z,8.19
2024-01-15T22:46:12.090Z,8.57
2024-01-15T22:51:15.737Z,8.75
2024-01-15T22:56:19.794Z,8.54
2024-01-15T23:01:24.813Z,8.95
2024-01-15T23:06:28.831Z,8.41
2024-01-15T23:11:32.412Z,8.64
2024-01-15T23:21:40.841Z,8.42
2024-01-15T23:26:44.647Z,8.39
2024-01-15T23:31:50.121Z,8.79
2024-01-15T23:36:53.908Z,9.34
2024-01-15T23:41:57.557Z,9.13
2024-01-15T23:47:02.466Z,9.63
2024-01-15T23:52:07.020Z,8.60
2024-01-15T23:57:11.172Z,8.64
